PWSweather.com
Personal Weather Stations
Station Observations
KIDNAMPA57
Canyon County Idaho, Nampa, ID 83687

Canyon County IdahoNampa, ID 83687

Lat: 43.587235, Lon: -116.49831979999999

Elevation: 2615

Station Type: Davis Vantage Pro 2

www.rockinglweather.com

High Low Average
Temperature 62.0°F16.7°C 36.1°F2.3°C 49.2°F9.6°C
Dew Point 42.2°F5.7°C 31.8°F-0.1°C 34.8°F1.6°C
Winds 25.0 mph 40.2 kmh Calm Calm 8.0 mph SE12.9 kmh SE
Wind Gusts 38.0 mph61.2 kmh 4.0 mph6.4 kmh 16.0 mph25.7 kmh
Humidity 88% 36% 61%
Pressure 30.18 in1022.0 mb 29.85 in1010.8 mb -
Precipitation 0.00 in0.0 mm - -
Hour Temp Dew Point Humidity Winds Wind Gusts Pressure Precip Precip Rate Daily Precip Total
12:00 AM 39.5°F4.2°C 35.7°F2.1°C 86% 4.0 mph SE6.4 kmh SE 4.0 mph6.4 kmh 30.17 in1021.7 mb 0.00 in0.0 mm 0.00 in0.0 mm 0.00 in0.0 mm
12:05 AM 39.5°F4.2°C 35.7°F2.1°C 86% Calm Calm 4.0 mph6.4 kmh 30.17 in1021.7 mb 0.00 in0.0 mm 0.00 in0.0 mm 0.00 in0.0 mm
12:10 AM 39.5°F4.2°C 35.7°F2.1°C 86% 3.0 mph SE4.8 kmh SE 4.0 mph6.4 kmh 30.17 in1021.7 mb 0.00 in0.0 mm 0.00 in0.0 mm 0.00 in0.0 mm
12:15 AM 39.5°F4.2°C 35.7°F2.1°C 86% Calm Calm 4.0 mph6.4 kmh 30.17 in1021.7 mb 0.00 in0.0 mm 0.00 in0.0 mm 0.00 in0.0 mm
12:20 AM 39.5°F4.2°C 35.7°F2.1°C 86% 3.0 mph SE4.8 kmh SE 5.0 mph8.0 kmh 30.17 in1021.7 mb 0.00 in0.0 mm 0.00 in0.0 mm 0.00 in0.0 mm
12:25 AM 39.5°F4.2°C 35.4°F1.9°C 85% 1.0 mph SE1.6 kmh SE 5.0 mph8.0 kmh 30.17 in1021.7 mb 0.00 in0.0 mm 0.00 in0.0 mm 0.00 in0.0 mm
12:30 AM 39.5°F4.2°C 35.4°F1.9°C 85% 3.0 mph SE4.8 kmh SE 5.0 mph8.0 kmh 30.17 in1021.7 mb 0.00 in0.0 mm 0.00 in0.0 mm 0.00 in0.0 mm
12:35 AM 39.4°F4.1°C 35.3°F1.8°C 85% 2.0 mph SE3.2 kmh SE 4.0 mph6.4 kmh 30.17 in1021.7 mb 0.00 in0.0 mm 0.00 in0.0 mm 0.00 in0.0 mm
12:40 AM 39.4°F4.1°C 35.3°F1.8°C 85% 2.0 mph SE3.2 kmh SE 4.0 mph6.4 kmh 30.17 in1021.7 mb 0.00 in0.0 mm 0.00 in0.0 mm 0.00 in0.0 mm
12:45 AM 39.4°F4.1°C 35.3°F1.8°C 85% 3.0 mph SE4.8 kmh SE 5.0 mph8.0 kmh 30.17 in1021.7 mb 0.00 in0.0 mm 0.00 in0.0 mm 0.00 in0.0 mm
12:50 AM 39.4°F4.1°C 35.6°F2.0°C 86% Calm Calm 5.0 mph8.0 kmh 30.17 in1021.7 mb 0.00 in0.0 mm 0.00 in0.0 mm 0.00 in0.0 mm
12:55 AM 39.4°F4.1°C 35.3°F1.8°C 85% 2.0 mph ESE3.2 kmh ESE 5.0 mph8.0 kmh 30.17 in1021.7 mb 0.00 in0.0 mm 0.00 in0.0 mm 0.00 in0.0 mm
01:00 AM 39.2°F4.0°C 35.1°F1.7°C 85% 1.0 mph SE1.6 kmh SE 7.0 mph11.3 kmh 30.17 in1021.7 mb 0.00 in0.0 mm 0.00 in0.0 mm 0.00 in0.0 mm
01:05 AM 39.1°F3.9°C 35.3°F1.8°C 86% 4.0 mph SE6.4 kmh SE 5.0 mph8.0 kmh 30.17 in1021.7 mb 0.00 in0.0 mm 0.00 in0.0 mm 0.00 in0.0 mm
01:10 AM 39.1°F3.9°C 35.0°F1.7°C 85% 2.0 mph SE3.2 kmh SE 6.0 mph9.7 kmh 30.17 in1021.7 mb 0.00 in0.0 mm 0.00 in0.0 mm 0.00 in0.0 mm
01:15 AM 38.8°F3.8°C 34.7°F1.5°C 85% Calm Calm 6.0 mph9.7 kmh 30.17 in1021.7 mb 0.00 in0.0 mm 0.00 in0.0 mm 0.00 in0.0 mm
01:20 AM 38.6°F3.7°C 34.8°F1.6°C 86% 2.0 mph SE3.2 kmh SE 4.0 mph6.4 kmh 30.17 in1021.7 mb 0.00 in0.0 mm 0.00 in0.0 mm 0.00 in0.0 mm
01:25 AM 38.4°F3.6°C 34.6°F1.4°C 86% 2.0 mph SE3.2 kmh SE 6.0 mph9.7 kmh 30.17 in1021.7 mb 0.00 in0.0 mm 0.00 in0.0 mm 0.00 in0.0 mm
01:30 AM 38.3°F3.5°C 34.5°F1.4°C 86% Calm Calm 7.0 mph11.3 kmh 30.17 in1021.7 mb 0.00 in0.0 mm 0.00 in0.0 mm 0.00 in0.0 mm
01:35 AM 38.2°F3.4°C 34.4°F1.3°C 86% 4.0 mph SSE6.4 kmh SSE 5.0 mph8.0 kmh 30.17 in1021.7 mb 0.00 in0.0 mm 0.00 in0.0 mm 0.00 in0.0 mm
01:40 AM 38.0°F3.3°C 34.5°F1.4°C 87% 1.0 mph SSE1.6 kmh SSE 6.0 mph9.7 kmh 30.18 in1022.0 mb 0.00 in0.0 mm 0.00 in0.0 mm 0.00 in0.0 mm
01:45 AM 37.8°F3.2°C 34.3°F1.3°C 87% 5.0 mph SSE8.0 kmh SSE 6.0 mph9.7 kmh 30.18 in1022.0 mb 0.00 in0.0 mm 0.00 in0.0 mm 0.00 in0.0 mm
01:50 AM 37.5°F3.1°C 34.0°F1.1°C 87% 1.0 mph SSE1.6 kmh SSE 4.0 mph6.4 kmh 30.18 in1022.0 mb 0.00 in0.0 mm 0.00 in0.0 mm 0.00 in0.0 mm
01:55 AM 37.4°F3.0°C 33.9°F1.1°C 87% 2.0 mph SE3.2 kmh SE 4.0 mph6.4 kmh 30.18 in1022.0 mb 0.00 in0.0 mm 0.00 in0.0 mm 0.00 in0.0 mm
02:00 AM 37.6°F3.1°C 34.4°F1.3°C 88% 2.0 mph SE3.2 kmh SE 6.0 mph9.7 kmh 30.18 in1022.0 mb 0.00 in0.0 mm 0.00 in0.0 mm 0.00 in0.0 mm
02:05 AM 37.8°F3.2°C 34.6°F1.4°C 88% 3.0 mph SE4.8 kmh SE 5.0 mph8.0 kmh 30.18 in1022.0 mb 0.00 in0.0 mm 0.00 in0.0 mm 0.00 in0.0 mm
02:10 AM 38.0°F3.3°C 34.5°F1.4°C 87% 3.0 mph SE4.8 kmh SE 6.0 mph9.7 kmh 30.18 in1022.0 mb 0.00 in0.0 mm 0.00 in0.0 mm 0.00 in0.0 mm
02:15 AM 38.1°F3.4°C 34.6°F1.4°C 87% 2.0 mph SE3.2 kmh SE 6.0 mph9.7 kmh 30.18 in1022.0 mb 0.00 in0.0 mm 0.00 in0.0 mm 0.00 in0.0 mm
02:20 AM 38.2°F3.4°C 34.4°F1.3°C 86% 3.0 mph SE4.8 kmh SE 5.0 mph8.0 kmh 30.18 in1022.0 mb 0.00 in0.0 mm 0.00 in0.0 mm 0.00 in0.0 mm
02:25 AM 38.3°F3.5°C 34.5°F1.4°C 86% 4.0 mph SE6.4 kmh SE 5.0 mph8.0 kmh 30.18 in1022.0 mb 0.00 in0.0 mm 0.00 in0.0 mm 0.00 in0.0 mm
02:30 AM 38.6°F3.7°C 34.8°F1.6°C 86% Calm Calm 5.0 mph8.0 kmh 30.18 in1022.0 mb 0.00 in0.0 mm 0.00 in0.0 mm 0.00 in0.0 mm
02:35 AM 38.9°F3.8°C 35.1°F1.7°C 86% 4.0 mph SE6.4 kmh SE 6.0 mph9.7 kmh 30.17 in1021.7 mb 0.00 in0.0 mm 0.00 in0.0 mm 0.00 in0.0 mm
02:40 AM 39.3°F4.1°C 35.2°F1.8°C 85% 7.0 mph SE11.3 kmh SE 8.0 mph12.9 kmh 30.18 in1022.0 mb 0.00 in0.0 mm 0.00 in0.0 mm 0.00 in0.0 mm
02:45 AM 39.6°F4.2°C 35.2°F1.8°C 84% 5.0 mph SE8.0 kmh SE 11.0 mph17.7 kmh 30.18 in1022.0 mb 0.00 in0.0 mm 0.00 in0.0 mm 0.00 in0.0 mm
02:50 AM 39.7°F4.3°C 35.0°F1.7°C 83% 5.0 mph SE8.0 kmh SE 9.0 mph14.5 kmh 30.18 in1022.0 mb 0.00 in0.0 mm 0.00 in0.0 mm 0.00 in0.0 mm
02:55 AM 39.9°F4.4°C 35.2°F1.8°C 83% 4.0 mph SE6.4 kmh SE 10.0 mph16.1 kmh 30.18 in1022.0 mb 0.00 in0.0 mm 0.00 in0.0 mm 0.00 in0.0 mm
03:00 AM 40.4°F4.7°C 35.4°F1.9°C 82% 7.0 mph SE11.3 kmh SE 10.0 mph16.1 kmh 30.17 in1021.7 mb 0.00 in0.0 mm 0.00 in0.0 mm 0.00 in0.0 mm
03:05 AM 40.7°F4.8°C 35.0°F1.7°C 80% 7.0 mph SE11.3 kmh SE 9.0 mph14.5 kmh 30.17 in1021.7 mb 0.00 in0.0 mm 0.00 in0.0 mm 0.00 in0.0 mm
03:10 AM 40.7°F4.8°C 35.0°F1.7°C 80% 6.0 mph SE9.7 kmh SE 10.0 mph16.1 kmh 30.18 in1022.0 mb 0.00 in0.0 mm 0.00 in0.0 mm 0.00 in0.0 mm
03:15 AM 40.8°F4.9°C 34.8°F1.6°C 79% 4.0 mph ESE6.4 kmh ESE 10.0 mph16.1 kmh 30.18 in1022.0 mb 0.00 in0.0 mm 0.00 in0.0 mm 0.00 in0.0 mm
03:20 AM 40.9°F4.9°C 34.9°F1.6°C 79% 5.0 mph SE8.0 kmh SE 11.0 mph17.7 kmh 30.18 in1022.0 mb 0.00 in0.0 mm 0.00 in0.0 mm 0.00 in0.0 mm
03:25 AM 40.8°F4.9°C 34.5°F1.4°C 78% 4.0 mph SE6.4 kmh SE 11.0 mph17.7 kmh 30.18 in1022.0 mb 0.00 in0.0 mm 0.00 in0.0 mm 0.00 in0.0 mm
03:30 AM 40.6°F4.8°C 34.6°F1.4°C 79% 2.0 mph SE3.2 kmh SE 11.0 mph17.7 kmh 30.18 in1022.0 mb 0.00 in0.0 mm 0.00 in0.0 mm 0.00 in0.0 mm
03:35 AM 40.3°F4.6°C 34.3°F1.3°C 79% 7.0 mph SE11.3 kmh SE 9.0 mph14.5 kmh 30.18 in1022.0 mb 0.00 in0.0 mm 0.00 in0.0 mm 0.00 in0.0 mm
03:45 AM 40.6°F4.8°C 34.6°F1.4°C 79% 5.0 mph SE8.0 kmh SE 10.0 mph16.1 kmh 30.18 in1022.0 mb 0.00 in0.0 mm 0.00 in0.0 mm 0.00 in0.0 mm
03:50 AM 40.6°F4.8°C 34.3°F1.3°C 78% 7.0 mph SE11.3 kmh SE 7.0 mph11.3 kmh 30.18 in1022.0 mb 0.00 in0.0 mm 0.00 in0.0 mm 0.00 in0.0 mm
03:55 AM 40.4°F4.7°C 34.1°F1.2°C 78% 4.0 mph SE6.4 kmh SE 8.0 mph12.9 kmh 30.18 in1022.0 mb 0.00 in0.0 mm 0.00 in0.0 mm 0.00 in0.0 mm
04:00 AM 40.0°F4.4°C 34.0°F1.1°C 79% 4.0 mph SE6.4 kmh SE 9.0 mph14.5 kmh 30.18 in1022.0 mb 0.00 in0.0 mm 0.00 in0.0 mm 0.00 in0.0 mm
04:05 AM 39.4°F4.1°C 33.4°F0.8°C 79% 8.0 mph SSE12.9 kmh SSE 8.0 mph12.9 kmh 30.18 in1022.0 mb 0.00 in0.0 mm 0.00 in0.0 mm 0.00 in0.0 mm
04:10 AM 38.6°F3.7°C 33.0°F0.6°C 80% 3.0 mph SE4.8 kmh SE 8.0 mph12.9 kmh 30.18 in1022.0 mb 0.00 in0.0 mm 0.00 in0.0 mm 0.00 in0.0 mm
04:15 AM 38.1°F3.4°C 33.1°F0.6°C 82% Calm Calm 8.0 mph12.9 kmh 30.17 in1021.7 mb 0.00 in0.0 mm 0.00 in0.0 mm 0.00 in0.0 mm
04:20 AM 37.8°F3.2°C 33.1°F0.6°C 83% 4.0 mph SE6.4 kmh SE 7.0 mph11.3 kmh 30.17 in1021.7 mb 0.00 in0.0 mm 0.00 in0.0 mm 0.00 in0.0 mm
04:25 AM 37.5°F3.1°C 32.8°F0.4°C 83% 3.0 mph SSE4.8 kmh SSE 9.0 mph14.5 kmh 30.17 in1021.7 mb 0.00 in0.0 mm 0.00 in0.0 mm 0.00 in0.0 mm
04:30 AM 37.2°F2.9°C 32.8°F0.4°C 84% 2.0 mph SE3.2 kmh SE 9.0 mph14.5 kmh 30.17 in1021.7 mb 0.00 in0.0 mm 0.00 in0.0 mm 0.00 in0.0 mm
04:35 AM 37.0°F2.8°C 32.6°F0.3°C 84% Calm Calm 6.0 mph9.7 kmh 30.17 in1021.7 mb 0.00 in0.0 mm 0.00 in0.0 mm 0.00 in0.0 mm
04:40 AM 36.7°F2.6°C 32.6°F0.3°C 85% 3.0 mph SE4.8 kmh SE 7.0 mph11.3 kmh 30.17 in1021.7 mb 0.00 in0.0 mm 0.00 in0.0 mm 0.00 in0.0 mm
04:45 AM 36.6°F2.6°C 32.5°F0.3°C 85% 5.0 mph SSE8.0 kmh SSE 7.0 mph11.3 kmh 30.17 in1021.7 mb 0.00 in0.0 mm 0.00 in0.0 mm 0.00 in0.0 mm
04:50 AM 36.6°F2.6°C 32.5°F0.3°C 85% 2.0 mph SE3.2 kmh SE 7.0 mph11.3 kmh 30.17 in1021.7 mb 0.00 in0.0 mm 0.00 in0.0 mm 0.00 in0.0 mm
04:55 AM 36.5°F2.5°C 32.4°F0.2°C 85% 1.0 mph SE1.6 kmh SE 8.0 mph12.9 kmh 30.16 in1021.3 mb 0.00 in0.0 mm 0.00 in0.0 mm 0.00 in0.0 mm
05:00 AM 36.4°F2.4°C 32.3°F0.2°C 85% 3.0 mph SE4.8 kmh SE 8.0 mph12.9 kmh 30.16 in1021.3 mb 0.00 in0.0 mm 0.00 in0.0 mm 0.00 in0.0 mm
05:05 AM 36.3°F2.4°C 32.5°F0.3°C 86% 4.0 mph SE6.4 kmh SE 6.0 mph9.7 kmh 30.16 in1021.3 mb 0.00 in0.0 mm 0.00 in0.0 mm 0.00 in0.0 mm
05:10 AM 36.2°F2.3°C 32.4°F0.2°C 86% 1.0 mph SE1.6 kmh SE 6.0 mph9.7 kmh 30.16 in1021.3 mb 0.00 in0.0 mm 0.00 in0.0 mm 0.00 in0.0 mm
05:15 AM 36.1°F2.3°C 32.3°F0.2°C 86% 3.0 mph SE4.8 kmh SE 6.0 mph9.7 kmh 30.16 in1021.3 mb 0.00 in0.0 mm 0.00 in0.0 mm 0.00 in0.0 mm
05:20 AM 36.2°F2.3°C 32.4°F0.2°C 86% 5.0 mph SE8.0 kmh SE 7.0 mph11.3 kmh 30.17 in1021.7 mb 0.00 in0.0 mm 0.00 in0.0 mm 0.00 in0.0 mm
05:25 AM 36.3°F2.4°C 32.5°F0.3°C 86% 2.0 mph SE3.2 kmh SE 7.0 mph11.3 kmh 30.16 in1021.3 mb 0.00 in0.0 mm 0.00 in0.0 mm 0.00 in0.0 mm
05:30 AM 36.2°F2.3°C 32.4°F0.2°C 86% 5.0 mph SE8.0 kmh SE 7.0 mph11.3 kmh 30.17 in1021.7 mb 0.00 in0.0 mm 0.00 in0.0 mm 0.00 in0.0 mm
05:35 AM 36.1°F2.3°C 32.3°F0.2°C 86% 4.0 mph SE6.4 kmh SE 7.0 mph11.3 kmh 30.17 in1021.7 mb 0.00 in0.0 mm 0.00 in0.0 mm 0.00 in0.0 mm
05:40 AM 36.1°F2.3°C 32.3°F0.2°C 86% 7.0 mph SE11.3 kmh SE 8.0 mph12.9 kmh 30.17 in1021.7 mb 0.00 in0.0 mm 0.00 in0.0 mm 0.00 in0.0 mm
05:45 AM 36.1°F2.3°C 32.3°F0.2°C 86% 3.0 mph SE4.8 kmh SE 8.0 mph12.9 kmh 30.17 in1021.7 mb 0.00 in0.0 mm 0.00 in0.0 mm 0.00 in0.0 mm
05:50 AM 36.2°F2.3°C 32.4°F0.2°C 86% 3.0 mph SE4.8 kmh SE 7.0 mph11.3 kmh 30.17 in1021.7 mb 0.00 in0.0 mm 0.00 in0.0 mm 0.00 in0.0 mm
05:55 AM 36.3°F2.4°C 32.5°F0.3°C 86% 6.0 mph SE9.7 kmh SE 7.0 mph11.3 kmh 30.17 in1021.7 mb 0.00 in0.0 mm 0.00 in0.0 mm 0.00 in0.0 mm
06:05 AM 36.5°F2.5°C 32.4°F0.2°C 85% 1.0 mph S1.6 kmh S 9.0 mph14.5 kmh 30.16 in1021.3 mb 0.00 in0.0 mm 0.00 in0.0 mm 0.00 in0.0 mm
06:10 AM 36.6°F2.6°C 32.5°F0.3°C 85% 5.0 mph SSE8.0 kmh SSE 9.0 mph14.5 kmh 30.16 in1021.3 mb 0.00 in0.0 mm 0.00 in0.0 mm 0.00 in0.0 mm
06:15 AM 36.6°F2.6°C 32.5°F0.3°C 85% 3.0 mph SE4.8 kmh SE 9.0 mph14.5 kmh 30.16 in1021.3 mb 0.00 in0.0 mm 0.00 in0.0 mm 0.00 in0.0 mm
06:25 AM 36.7°F2.6°C 32.3°F0.2°C 84% 3.0 mph S4.8 kmh S 10.0 mph16.1 kmh 30.16 in1021.3 mb 0.00 in0.0 mm 0.00 in0.0 mm 0.00 in0.0 mm
06:30 AM 36.6°F2.6°C 32.2°F0.1°C 84% 3.0 mph SE4.8 kmh SE 10.0 mph16.1 kmh 30.16 in1021.3 mb 0.00 in0.0 mm 0.00 in0.0 mm 0.00 in0.0 mm
06:35 AM 36.7°F2.6°C 32.3°F0.2°C 84% 6.0 mph SSE9.7 kmh SSE 6.0 mph9.7 kmh 30.16 in1021.3 mb 0.00 in0.0 mm 0.00 in0.0 mm 0.00 in0.0 mm
06:40 AM 36.8°F2.7°C 32.4°F0.2°C 84% 3.0 mph SE4.8 kmh SE 7.0 mph11.3 kmh 30.16 in1021.3 mb 0.00 in0.0 mm 0.00 in0.0 mm 0.00 in0.0 mm
06:45 AM 36.8°F2.7°C 32.1°F0.1°C 83% 4.0 mph S6.4 kmh S 8.0 mph12.9 kmh 30.16 in1021.3 mb 0.00 in0.0 mm 0.00 in0.0 mm 0.00 in0.0 mm
06:50 AM 36.7°F2.6°C 32.0°F0.0°C 83% 5.0 mph S8.0 kmh S 8.0 mph12.9 kmh 30.16 in1021.3 mb 0.00 in0.0 mm 0.00 in0.0 mm 0.00 in0.0 mm
06:55 AM 36.7°F2.6°C 32.0°F0.0°C 83% 4.0 mph S6.4 kmh S 8.0 mph12.9 kmh 30.16 in1021.3 mb 0.00 in0.0 mm 0.00 in0.0 mm 0.00 in0.0 mm
07:00 AM 36.8°F2.7°C 32.1°F0.1°C 83% 3.0 mph S4.8 kmh S 8.0 mph12.9 kmh 30.16 in1021.3 mb 0.00 in0.0 mm 0.00 in0.0 mm 0.00 in0.0 mm
07:05 AM 36.8°F2.7°C 32.1°F0.1°C 83% 2.0 mph S3.2 kmh S 6.0 mph9.7 kmh 30.15 in1021.0 mb 0.00 in0.0 mm 0.00 in0.0 mm 0.00 in0.0 mm
07:10 AM 36.7°F2.6°C 32.0°F0.0°C 83% 4.0 mph S6.4 kmh S 6.0 mph9.7 kmh 30.15 in1021.0 mb 0.00 in0.0 mm 0.00 in0.0 mm 0.00 in0.0 mm
07:15 AM 36.8°F2.7°C 32.1°F0.1°C 83% 4.0 mph S6.4 kmh S 9.0 mph14.5 kmh 30.15 in1021.0 mb 0.00 in0.0 mm 0.00 in0.0 mm 0.00 in0.0 mm
07:20 AM 36.9°F2.7°C 32.2°F0.1°C 83% 2.0 mph S3.2 kmh S 8.0 mph12.9 kmh 30.15 in1021.0 mb 0.00 in0.0 mm 0.00 in0.0 mm 0.00 in0.0 mm
07:25 AM 36.8°F2.7°C 32.1°F0.1°C 83% 5.0 mph S8.0 kmh S 8.0 mph12.9 kmh 30.15 in1021.0 mb 0.00 in0.0 mm 0.00 in0.0 mm 0.00 in0.0 mm
07:30 AM 36.8°F2.7°C 32.1°F0.1°C 83% 6.0 mph SSE9.7 kmh SSE 8.0 mph12.9 kmh 30.14 in1020.7 mb 0.00 in0.0 mm 0.00 in0.0 mm 0.00 in0.0 mm
07:35 AM 36.7°F2.6°C 32.0°F0.0°C 83% 1.0 mph SSE1.6 kmh SSE 8.0 mph12.9 kmh 30.14 in1020.7 mb 0.00 in0.0 mm 0.00 in0.0 mm 0.00 in0.0 mm
07:40 AM 36.7°F2.6°C 32.0°F0.0°C 83% 3.0 mph SSE4.8 kmh SSE 8.0 mph12.9 kmh 30.14 in1020.7 mb 0.00 in0.0 mm 0.00 in0.0 mm 0.00 in0.0 mm
07:45 AM 36.6°F2.6°C 31.9°F-0.1°C 83% 5.0 mph S8.0 kmh S 9.0 mph14.5 kmh 30.14 in1020.7 mb 0.00 in0.0 mm 0.00 in0.0 mm 0.00 in0.0 mm
07:50 AM 36.6°F2.6°C 31.9°F-0.1°C 83% 1.0 mph SE1.6 kmh SE 6.0 mph9.7 kmh 30.14 in1020.7 mb 0.00 in0.0 mm 0.00 in0.0 mm 0.00 in0.0 mm
07:55 AM 36.5°F2.5°C 31.8°F-0.1°C 83% 2.0 mph SE3.2 kmh SE 6.0 mph9.7 kmh 30.14 in1020.7 mb 0.00 in0.0 mm 0.00 in0.0 mm 0.00 in0.0 mm
08:00 AM 36.5°F2.5°C 31.8°F-0.1°C 83% 4.0 mph SSE6.4 kmh SSE 7.0 mph11.3 kmh 30.14 in1020.7 mb 0.00 in0.0 mm 0.00 in0.0 mm 0.00 in0.0 mm
08:05 AM 36.5°F2.5°C 32.1°F0.1°C 84% 4.0 mph SSE6.4 kmh SSE 5.0 mph8.0 kmh 30.14 in1020.7 mb 0.00 in0.0 mm 0.00 in0.0 mm 0.00 in0.0 mm
08:10 AM 36.4°F2.4°C 32.0°F0.0°C 84% 5.0 mph S8.0 kmh S 6.0 mph9.7 kmh 30.14 in1020.7 mb 0.00 in0.0 mm 0.00 in0.0 mm 0.00 in0.0 mm
08:15 AM 36.4°F2.4°C 32.0°F0.0°C 84% 4.0 mph SE6.4 kmh SE 9.0 mph14.5 kmh 30.14 in1020.7 mb 0.00 in0.0 mm 0.00 in0.0 mm 0.00 in0.0 mm
08:20 AM 36.5°F2.5°C 32.1°F0.1°C 84% 4.0 mph S6.4 kmh S 9.0 mph14.5 kmh 30.14 in1020.7 mb 0.00 in0.0 mm 0.00 in0.0 mm 0.00 in0.0 mm
08:25 AM 36.5°F2.5°C 32.1°F0.1°C 84% 4.0 mph S6.4 kmh S 10.0 mph16.1 kmh 30.14 in1020.7 mb 0.00 in0.0 mm 0.00 in0.0 mm 0.00 in0.0 mm
08:30 AM 36.5°F2.5°C 32.1°F0.1°C 84% 5.0 mph S8.0 kmh S 12.0 mph19.3 kmh 30.13 in1020.3 mb 0.00 in0.0 mm 0.00 in0.0 mm 0.00 in0.0 mm
08:35 AM 36.6°F2.6°C 32.2°F0.1°C 84% 7.0 mph S11.3 kmh S 10.0 mph16.1 kmh 30.13 in1020.3 mb 0.00 in0.0 mm 0.00 in0.0 mm 0.00 in0.0 mm
08:40 AM 36.8°F2.7°C 32.4°F0.2°C 84% 4.0 mph SSE6.4 kmh SSE 10.0 mph16.1 kmh 30.14 in1020.7 mb 0.00 in0.0 mm 0.00 in0.0 mm 0.00 in0.0 mm
08:45 AM 36.9°F2.7°C 32.5°F0.3°C 84% 5.0 mph S8.0 kmh S 10.0 mph16.1 kmh 30.14 in1020.7 mb 0.00 in0.0 mm 0.00 in0.0 mm 0.00 in0.0 mm
08:50 AM 37.0°F2.8°C 32.6°F0.3°C 84% 4.0 mph SE6.4 kmh SE 5.0 mph8.0 kmh 30.13 in1020.3 mb 0.00 in0.0 mm 0.00 in0.0 mm 0.00 in0.0 mm
08:55 AM 37.2°F2.9°C 32.8°F0.4°C 84% 6.0 mph SE9.7 kmh SE 7.0 mph11.3 kmh 30.13 in1020.3 mb 0.00 in0.0 mm 0.00 in0.0 mm 0.00 in0.0 mm
09:00 AM 37.4°F3.0°C 33.0°F0.6°C 84% 3.0 mph SSE4.8 kmh SSE 8.0 mph12.9 kmh 30.14 in1020.7 mb 0.00 in0.0 mm 0.00 in0.0 mm 0.00 in0.0 mm
09:05 AM 37.7°F3.2°C 33.6°F0.9°C 85% 4.0 mph S6.4 kmh S 9.0 mph14.5 kmh 30.13 in1020.3 mb 0.00 in0.0 mm 0.00 in0.0 mm 0.00 in0.0 mm
09:10 AM 38.1°F3.4°C 34.0°F1.1°C 85% 4.0 mph SE6.4 kmh SE 9.0 mph14.5 kmh 30.13 in1020.3 mb 0.00 in0.0 mm 0.00 in0.0 mm 0.00 in0.0 mm
09:15 AM 38.5°F3.6°C 34.4°F1.3°C 85% 11.0 mph SSE17.7 kmh SSE 12.0 mph19.3 kmh 30.14 in1020.7 mb 0.00 in0.0 mm 0.00 in0.0 mm 0.00 in0.0 mm
09:20 AM 38.8°F3.8°C 34.4°F1.3°C 84% 7.0 mph SSE11.3 kmh SSE 10.0 mph16.1 kmh 30.13 in1020.3 mb 0.00 in0.0 mm 0.00 in0.0 mm 0.00 in0.0 mm
09:25 AM 39.0°F3.9°C 34.6°F1.4°C 84% 2.0 mph S3.2 kmh S 10.0 mph16.1 kmh 30.14 in1020.7 mb 0.00 in0.0 mm 0.00 in0.0 mm 0.00 in0.0 mm
09:30 AM 39.4°F4.1°C 35.0°F1.7°C 84% 4.0 mph S6.4 kmh S 10.0 mph16.1 kmh 30.13 in1020.3 mb 0.00 in0.0 mm 0.00 in0.0 mm 0.00 in0.0 mm
09:35 AM 39.5°F4.2°C 34.8°F1.6°C 83% 4.0 mph SSE6.4 kmh SSE 12.0 mph19.3 kmh 30.13 in1020.3 mb 0.00 in0.0 mm 0.00 in0.0 mm 0.00 in0.0 mm
09:40 AM 39.8°F4.3°C 35.1°F1.7°C 83% 5.0 mph SSE8.0 kmh SSE 12.0 mph19.3 kmh 30.13 in1020.3 mb 0.00 in0.0 mm 0.00 in0.0 mm 0.00 in0.0 mm
09:45 AM 40.1°F4.5°C 35.4°F1.9°C 83% 7.0 mph S11.3 kmh S 12.0 mph19.3 kmh 30.13 in1020.3 mb 0.00 in0.0 mm 0.00 in0.0 mm 0.00 in0.0 mm
09:50 AM 40.5°F4.7°C 35.5°F1.9°C 82% 8.0 mph SSE12.9 kmh SSE 14.0 mph22.5 kmh 30.13 in1020.3 mb 0.00 in0.0 mm 0.00 in0.0 mm 0.00 in0.0 mm
09:55 AM 41.0°F5.0°C 35.9°F2.2°C 82% 6.0 mph SE9.7 kmh SE 14.0 mph22.5 kmh 30.13 in1020.3 mb 0.00 in0.0 mm 0.00 in0.0 mm 0.00 in0.0 mm
10:00 AM 41.6°F5.3°C 36.2°F2.3°C 81% 5.0 mph ESE8.0 kmh ESE 14.0 mph22.5 kmh 30.13 in1020.3 mb 0.00 in0.0 mm 0.00 in0.0 mm 0.00 in0.0 mm
10:05 AM 42.0°F5.6°C 36.3°F2.4°C 80% 7.0 mph SE11.3 kmh SE 15.0 mph24.1 kmh 30.13 in1020.3 mb 0.00 in0.0 mm 0.00 in0.0 mm 0.00 in0.0 mm
10:10 AM 42.3°F5.7°C 35.9°F2.2°C 78% 5.0 mph SE8.0 kmh SE 15.0 mph24.1 kmh 30.13 in1020.3 mb 0.00 in0.0 mm 0.00 in0.0 mm 0.00 in0.0 mm
10:15 AM 42.6°F5.9°C 36.2°F2.3°C 78% 11.0 mph SE17.7 kmh SE 18.0 mph29.0 kmh 30.13 in1020.3 mb 0.00 in0.0 mm 0.00 in0.0 mm 0.00 in0.0 mm
10:20 AM 42.8°F6.0°C 36.1°F2.3°C 77% 6.0 mph S9.7 kmh S 17.0 mph27.4 kmh 30.13 in1020.3 mb 0.00 in0.0 mm 0.00 in0.0 mm 0.00 in0.0 mm
10:25 AM 43.0°F6.1°C 36.3°F2.4°C 77% 13.0 mph SE20.9 kmh SE 18.0 mph29.0 kmh 30.13 in1020.3 mb 0.00 in0.0 mm 0.00 in0.0 mm 0.00 in0.0 mm
10:30 AM 43.5°F6.4°C 36.8°F2.7°C 77% 6.0 mph SE9.7 kmh SE 18.0 mph29.0 kmh 30.13 in1020.3 mb 0.00 in0.0 mm 0.00 in0.0 mm 0.00 in0.0 mm
10:35 AM 43.8°F6.6°C 37.1°F2.8°C 77% 3.0 mph SE4.8 kmh SE 13.0 mph20.9 kmh 30.12 in1020.0 mb 0.00 in0.0 mm 0.00 in0.0 mm 0.00 in0.0 mm
10:40 AM 44.2°F6.8°C 37.1°F2.8°C 76% 6.0 mph SE9.7 kmh SE 14.0 mph22.5 kmh 30.12 in1020.0 mb 0.00 in0.0 mm 0.00 in0.0 mm 0.00 in0.0 mm
10:45 AM 44.6°F7.0°C 37.2°F2.9°C 75% 9.0 mph SE14.5 kmh SE 15.0 mph24.1 kmh 30.13 in1020.3 mb 0.00 in0.0 mm 0.00 in0.0 mm 0.00 in0.0 mm
10:50 AM 44.9°F7.2°C 37.5°F3.1°C 75% 7.0 mph SSE11.3 kmh SSE 13.0 mph20.9 kmh 30.12 in1020.0 mb 0.00 in0.0 mm 0.00 in0.0 mm 0.00 in0.0 mm
10:55 AM 45.5°F7.5°C 38.1°F3.4°C 75% 8.0 mph SE12.9 kmh SE 17.0 mph27.4 kmh 30.12 in1020.0 mb 0.00 in0.0 mm 0.00 in0.0 mm 0.00 in0.0 mm
11:00 AM 46.0°F7.8°C 38.2°F3.4°C 74% 4.0 mph SE6.4 kmh SE 17.0 mph27.4 kmh 30.12 in1020.0 mb 0.00 in0.0 mm 0.00 in0.0 mm 0.00 in0.0 mm
11:05 AM 47.2°F8.4°C 38.7°F3.7°C 72% 7.0 mph SSE11.3 kmh SSE 17.0 mph27.4 kmh 30.12 in1020.0 mb 0.00 in0.0 mm 0.00 in0.0 mm 0.00 in0.0 mm
11:10 AM 47.8°F8.8°C 38.9°F3.8°C 71% 8.0 mph SE12.9 kmh SE 17.0 mph27.4 kmh 30.12 in1020.0 mb 0.00 in0.0 mm 0.00 in0.0 mm 0.00 in0.0 mm
11:15 AM 47.8°F8.8°C 38.1°F3.4°C 69% 4.0 mph SE6.4 kmh SE 17.0 mph27.4 kmh 30.12 in1020.0 mb 0.00 in0.0 mm 0.00 in0.0 mm 0.00 in0.0 mm
11:20 AM 48.2°F9.0°C 38.5°F3.6°C 69% 11.0 mph SE17.7 kmh SE 14.0 mph22.5 kmh 30.11 in1019.6 mb 0.00 in0.0 mm 0.00 in0.0 mm 0.00 in0.0 mm
11:25 AM 48.4°F9.1°C 38.7°F3.7°C 69% 8.0 mph SE12.9 kmh SE 14.0 mph22.5 kmh 30.11 in1019.6 mb 0.00 in0.0 mm 0.00 in0.0 mm 0.00 in0.0 mm
11:30 AM 48.3°F9.1°C 38.2°F3.4°C 68% 10.0 mph S16.1 kmh S 15.0 mph24.1 kmh 30.11 in1019.6 mb 0.00 in0.0 mm 0.00 in0.0 mm 0.00 in0.0 mm
11:35 AM 48.9°F9.4°C 38.8°F3.8°C 68% 7.0 mph S11.3 kmh S 12.0 mph19.3 kmh 30.11 in1019.6 mb 0.00 in0.0 mm 0.00 in0.0 mm 0.00 in0.0 mm
11:40 AM 49.7°F9.8°C 39.6°F4.2°C 68% 9.0 mph SSE14.5 kmh SSE 12.0 mph19.3 kmh 30.11 in1019.6 mb 0.00 in0.0 mm 0.00 in0.0 mm 0.00 in0.0 mm
11:45 AM 50.2°F10.1°C 39.3°F4.1°C 66% 7.0 mph SE11.3 kmh SE 14.0 mph22.5 kmh 30.11 in1019.6 mb 0.00 in0.0 mm 0.00 in0.0 mm 0.00 in0.0 mm
11:50 AM 50.3°F10.2°C 38.6°F3.7°C 64% 4.0 mph S6.4 kmh S 17.0 mph27.4 kmh 30.10 in1019.3 mb 0.00 in0.0 mm 0.00 in0.0 mm 0.00 in0.0 mm
11:55 AM 50.9°F10.5°C 39.2°F4.0°C 64% 13.0 mph SE20.9 kmh SE 18.0 mph29.0 kmh 30.10 in1019.3 mb 0.00 in0.0 mm 0.00 in0.0 mm 0.00 in0.0 mm
12:00 PM 51.6°F10.9°C 40.2°F4.6°C 65% 7.0 mph S11.3 kmh S 20.0 mph32.2 kmh 30.10 in1019.3 mb 0.00 in0.0 mm 0.00 in0.0 mm 0.00 in0.0 mm
12:05 PM 52.4°F11.3°C 41.0°F5.0°C 65% 12.0 mph S19.3 kmh S 17.0 mph27.4 kmh 30.09 in1019.0 mb 0.00 in0.0 mm 0.00 in0.0 mm 0.00 in0.0 mm
12:10 PM 53.0°F11.7°C 40.3°F4.6°C 62% 6.0 mph SE9.7 kmh SE 20.0 mph32.2 kmh 30.09 in1019.0 mb 0.00 in0.0 mm 0.00 in0.0 mm 0.00 in0.0 mm
12:15 PM 53.5°F11.9°C 41.2°F5.1°C 63% 3.0 mph S4.8 kmh S 20.0 mph32.2 kmh 30.09 in1019.0 mb 0.00 in0.0 mm 0.00 in0.0 mm 0.00 in0.0 mm
12:20 PM 54.4°F12.4°C 42.1°F5.6°C 63% 12.0 mph S19.3 kmh S 18.0 mph29.0 kmh 30.09 in1019.0 mb 0.00 in0.0 mm 0.00 in0.0 mm 0.00 in0.0 mm
12:25 PM 55.0°F12.8°C 42.2°F5.7°C 62% 12.0 mph SE19.3 kmh SE 18.0 mph29.0 kmh 30.08 in1018.6 mb 0.00 in0.0 mm 0.00 in0.0 mm 0.00 in0.0 mm
12:30 PM 55.3°F12.9°C 41.2°F5.1°C 59% 3.0 mph SSE4.8 kmh SSE 18.0 mph29.0 kmh 30.08 in1018.6 mb 0.00 in0.0 mm 0.00 in0.0 mm 0.00 in0.0 mm
12:35 PM 55.8°F13.2°C 40.8°F4.9°C 57% 11.0 mph SSW17.7 kmh SSW 17.0 mph27.4 kmh 30.08 in1018.6 mb 0.00 in0.0 mm 0.00 in0.0 mm 0.00 in0.0 mm
12:40 PM 56.1°F13.4°C 40.6°F4.8°C 56% 4.0 mph SE6.4 kmh SE 17.0 mph27.4 kmh 30.07 in1018.3 mb 0.00 in0.0 mm 0.00 in0.0 mm 0.00 in0.0 mm
12:45 PM 57.1°F13.9°C 38.7°F3.7°C 50% 9.0 mph SE14.5 kmh SE 17.0 mph27.4 kmh 30.07 in1018.3 mb 0.00 in0.0 mm 0.00 in0.0 mm 0.00 in0.0 mm
12:50 PM 57.8°F14.3°C 38.3°F3.5°C 48% 4.0 mph SE6.4 kmh SE 17.0 mph27.4 kmh 30.06 in1017.9 mb 0.00 in0.0 mm 0.00 in0.0 mm 0.00 in0.0 mm
12:55 PM 58.1°F14.5°C 37.5°F3.1°C 46% 7.0 mph SE11.3 kmh SE 19.0 mph30.6 kmh 30.06 in1017.9 mb 0.00 in0.0 mm 0.00 in0.0 mm 0.00 in0.0 mm
01:00 PM 58.6°F14.8°C 36.8°F2.7°C 44% 17.0 mph SSE27.4 kmh SSE 24.0 mph38.6 kmh 30.06 in1017.9 mb 0.00 in0.0 mm 0.00 in0.0 mm 0.00 in0.0 mm
01:05 PM 59.1°F15.1°C 37.8°F3.2°C 45% 14.0 mph ESE22.5 kmh ESE 19.0 mph30.6 kmh 30.05 in1017.6 mb 0.00 in0.0 mm 0.00 in0.0 mm 0.00 in0.0 mm
01:10 PM 58.8°F14.9°C 36.4°F2.4°C 43% 10.0 mph SE16.1 kmh SE 23.0 mph37.0 kmh 30.05 in1017.6 mb 0.00 in0.0 mm 0.00 in0.0 mm 0.00 in0.0 mm
01:15 PM 58.7°F14.8°C 36.3°F2.4°C 43% 12.0 mph ESE19.3 kmh ESE 23.0 mph37.0 kmh 30.04 in1017.3 mb 0.00 in0.0 mm 0.00 in0.0 mm 0.00 in0.0 mm
01:20 PM 59.3°F15.2°C 36.8°F2.7°C 43% 8.0 mph SE12.9 kmh SE 21.0 mph33.8 kmh 30.04 in1017.3 mb 0.00 in0.0 mm 0.00 in0.0 mm 0.00 in0.0 mm
01:25 PM 59.7°F15.4°C 36.6°F2.6°C 42% 18.0 mph SE29.0 kmh SE 25.0 mph40.2 kmh 30.03 in1016.9 mb 0.00 in0.0 mm 0.00 in0.0 mm 0.00 in0.0 mm
01:30 PM 60.0°F15.6°C 36.9°F2.7°C 42% 12.0 mph SE19.3 kmh SE 25.0 mph40.2 kmh 30.03 in1016.9 mb 0.00 in0.0 mm 0.00 in0.0 mm 0.00 in0.0 mm
01:35 PM 60.1°F15.6°C 36.3°F2.4°C 41% 10.0 mph ESE16.1 kmh ESE 22.0 mph35.4 kmh 30.03 in1016.9 mb 0.00 in0.0 mm 0.00 in0.0 mm 0.00 in0.0 mm
01:40 PM 60.3°F15.7°C 36.5°F2.5°C 41% 15.0 mph SSE24.1 kmh SSE 24.0 mph38.6 kmh 30.02 in1016.6 mb 0.00 in0.0 mm 0.00 in0.0 mm 0.00 in0.0 mm
01:45 PM 60.6°F15.9°C 37.4°F3.0°C 42% 9.0 mph SE14.5 kmh SE 24.0 mph38.6 kmh 30.02 in1016.6 mb 0.00 in0.0 mm 0.00 in0.0 mm 0.00 in0.0 mm
01:50 PM 61.1°F16.2°C 36.6°F2.6°C 40% 20.0 mph ESE32.2 kmh ESE 24.0 mph38.6 kmh 30.01 in1016.3 mb 0.00 in0.0 mm 0.00 in0.0 mm 0.00 in0.0 mm
01:55 PM 61.0°F16.1°C 35.9°F2.2°C 39% 21.0 mph SE33.8 kmh SE 27.0 mph43.5 kmh 30.01 in1016.3 mb 0.00 in0.0 mm 0.00 in0.0 mm 0.00 in0.0 mm
02:00 PM 60.8°F16.0°C 35.7°F2.1°C 39% 12.0 mph SE19.3 kmh SE 27.0 mph43.5 kmh 30.01 in1016.3 mb 0.00 in0.0 mm 0.00 in0.0 mm 0.00 in0.0 mm
02:05 PM 61.1°F16.2°C 36.6°F2.6°C 40% 24.0 mph SE38.6 kmh SE 30.0 mph48.3 kmh 30.01 in1016.3 mb 0.00 in0.0 mm 0.00 in0.0 mm 0.00 in0.0 mm
02:10 PM 61.0°F16.1°C 35.2°F1.8°C 38% 13.0 mph SSE20.9 kmh SSE 30.0 mph48.3 kmh 30.00 in1015.9 mb 0.00 in0.0 mm 0.00 in0.0 mm 0.00 in0.0 mm
02:15 PM 61.0°F16.1°C 35.9°F2.2°C 39% 16.0 mph SE25.7 kmh SE 30.0 mph48.3 kmh 30.00 in1015.9 mb 0.00 in0.0 mm 0.00 in0.0 mm 0.00 in0.0 mm
02:20 PM 61.3°F16.3°C 36.2°F2.3°C 39% 19.0 mph SSE30.6 kmh SSE 24.0 mph38.6 kmh 30.00 in1015.9 mb 0.00 in0.0 mm 0.00 in0.0 mm 0.00 in0.0 mm
02:25 PM 61.5°F16.4°C 35.0°F1.7°C 37% 10.0 mph SE16.1 kmh SE 27.0 mph43.5 kmh 29.99 in1015.6 mb 0.00 in0.0 mm 0.00 in0.0 mm 0.00 in0.0 mm
02:30 PM 61.7°F16.5°C 35.9°F2.2°C 38% 16.0 mph SE25.7 kmh SE 27.0 mph43.5 kmh 29.99 in1015.6 mb 0.00 in0.0 mm 0.00 in0.0 mm 0.00 in0.0 mm
02:35 PM 61.3°F16.3°C 34.1°F1.2°C 36% 22.0 mph SE35.4 kmh SE 26.0 mph41.8 kmh 29.99 in1015.6 mb 0.00 in0.0 mm 0.00 in0.0 mm 0.00 in0.0 mm
02:40 PM 61.5°F16.4°C 35.0°F1.7°C 37% 17.0 mph SE27.4 kmh SE 26.0 mph41.8 kmh 29.99 in1015.6 mb 0.00 in0.0 mm 0.00 in0.0 mm 0.00 in0.0 mm
02:45 PM 62.0°F16.7°C 35.5°F1.9°C 37% 11.0 mph E17.7 kmh E 26.0 mph41.8 kmh 29.98 in1015.2 mb 0.00 in0.0 mm 0.00 in0.0 mm 0.00 in0.0 mm
02:50 PM 61.9°F16.6°C 35.4°F1.9°C 37% 6.0 mph SE9.7 kmh SE 26.0 mph41.8 kmh 29.98 in1015.2 mb 0.00 in0.0 mm 0.00 in0.0 mm 0.00 in0.0 mm
02:55 PM 61.4°F16.3°C 34.9°F1.6°C 37% 15.0 mph E24.1 kmh E 28.0 mph45.1 kmh 29.98 in1015.2 mb 0.00 in0.0 mm 0.00 in0.0 mm 0.00 in0.0 mm
03:00 PM 61.6°F16.4°C 35.1°F1.7°C 37% 8.0 mph SE12.9 kmh SE 28.0 mph45.1 kmh 29.97 in1014.9 mb 0.00 in0.0 mm 0.00 in0.0 mm 0.00 in0.0 mm
03:05 PM 61.8°F16.6°C 36.0°F2.2°C 38% 12.0 mph ESE19.3 kmh ESE 25.0 mph40.2 kmh 29.97 in1014.9 mb 0.00 in0.0 mm 0.00 in0.0 mm 0.00 in0.0 mm
03:10 PM 61.8°F16.6°C 36.0°F2.2°C 38% 11.0 mph SSW17.7 kmh SSW 25.0 mph40.2 kmh 29.97 in1014.9 mb 0.00 in0.0 mm 0.00 in0.0 mm 0.00 in0.0 mm
03:15 PM 61.8°F16.6°C 34.6°F1.4°C 36% 23.0 mph ESE37.0 kmh ESE 26.0 mph41.8 kmh 29.96 in1014.6 mb 0.00 in0.0 mm 0.00 in0.0 mm 0.00 in0.0 mm
03:20 PM 61.7°F16.5°C 35.9°F2.2°C 38% 4.0 mph ESE6.4 kmh ESE 29.0 mph46.7 kmh 29.97 in1014.9 mb 0.00 in0.0 mm 0.00 in0.0 mm 0.00 in0.0 mm
03:25 PM 61.8°F16.6°C 35.3°F1.8°C 37% 15.0 mph E24.1 kmh E 29.0 mph46.7 kmh 29.96 in1014.6 mb 0.00 in0.0 mm 0.00 in0.0 mm 0.00 in0.0 mm
03:30 PM 61.6°F16.4°C 35.1°F1.7°C 37% 21.0 mph E33.8 kmh E 29.0 mph46.7 kmh 29.96 in1014.6 mb 0.00 in0.0 mm 0.00 in0.0 mm 0.00 in0.0 mm
03:35 PM 61.5°F16.4°C 35.0°F1.7°C 37% 15.0 mph ESE24.1 kmh ESE 27.0 mph43.5 kmh 29.96 in1014.6 mb 0.00 in0.0 mm 0.00 in0.0 mm 0.00 in0.0 mm
03:40 PM 61.4°F16.3°C 34.9°F1.6°C 37% 10.0 mph SE16.1 kmh SE 27.0 mph43.5 kmh 29.95 in1014.2 mb 0.00 in0.0 mm 0.00 in0.0 mm 0.00 in0.0 mm
03:45 PM 61.4°F16.3°C 34.9°F1.6°C 37% 15.0 mph SE24.1 kmh SE 27.0 mph43.5 kmh 29.95 in1014.2 mb 0.00 in0.0 mm 0.00 in0.0 mm 0.00 in0.0 mm
03:50 PM 61.4°F16.3°C 34.2°F1.2°C 36% 14.0 mph SSE22.5 kmh SSE 23.0 mph37.0 kmh 29.94 in1013.9 mb 0.00 in0.0 mm 0.00 in0.0 mm 0.00 in0.0 mm
03:55 PM 61.3°F16.3°C 34.8°F1.6°C 37% 12.0 mph SE19.3 kmh SE 23.0 mph37.0 kmh 29.94 in1013.9 mb 0.00 in0.0 mm 0.00 in0.0 mm 0.00 in0.0 mm
04:00 PM 61.1°F16.2°C 34.0°F1.1°C 36% 10.0 mph SE16.1 kmh SE 30.0 mph48.3 kmh 29.94 in1013.9 mb 0.00 in0.0 mm 0.00 in0.0 mm 0.00 in0.0 mm
04:05 PM 61.3°F16.3°C 34.8°F1.6°C 37% 10.0 mph SSE16.1 kmh SSE 24.0 mph38.6 kmh 29.93 in1013.5 mb 0.00 in0.0 mm 0.00 in0.0 mm 0.00 in0.0 mm
04:10 PM 61.1°F16.2°C 34.0°F1.1°C 36% 9.0 mph E14.5 kmh E 26.0 mph41.8 kmh 29.93 in1013.5 mb 0.00 in0.0 mm 0.00 in0.0 mm 0.00 in0.0 mm
04:15 PM 61.2°F16.2°C 35.4°F1.9°C 38% 24.0 mph SE38.6 kmh SE 29.0 mph46.7 kmh 29.93 in1013.5 mb 0.00 in0.0 mm 0.00 in0.0 mm 0.00 in0.0 mm
04:20 PM 61.0°F16.1°C 34.6°F1.4°C 37% 20.0 mph SSE32.2 kmh SSE 24.0 mph38.6 kmh 29.93 in1013.5 mb 0.00 in0.0 mm 0.00 in0.0 mm 0.00 in0.0 mm
04:25 PM 61.0°F16.1°C 34.6°F1.4°C 37% 15.0 mph SE24.1 kmh SE 24.0 mph38.6 kmh 29.93 in1013.5 mb 0.00 in0.0 mm 0.00 in0.0 mm 0.00 in0.0 mm
04:30 PM 61.0°F16.1°C 34.6°F1.4°C 37% 25.0 mph SE40.2 kmh SE 27.0 mph43.5 kmh 29.92 in1013.2 mb 0.00 in0.0 mm 0.00 in0.0 mm 0.00 in0.0 mm
04:35 PM 61.1°F16.2°C 34.7°F1.5°C 37% 14.0 mph ESE22.5 kmh ESE 22.0 mph35.4 kmh 29.92 in1013.2 mb 0.00 in0.0 mm 0.00 in0.0 mm 0.00 in0.0 mm
04:40 PM 61.1°F16.2°C 34.7°F1.5°C 37% 12.0 mph ESE19.3 kmh ESE 30.0 mph48.3 kmh 29.92 in1013.2 mb 0.00 in0.0 mm 0.00 in0.0 mm 0.00 in0.0 mm
04:45 PM 61.0°F16.1°C 34.6°F1.4°C 37% 11.0 mph ESE17.7 kmh ESE 38.0 mph61.2 kmh 29.91 in1012.9 mb 0.00 in0.0 mm 0.00 in0.0 mm 0.00 in0.0 mm
04:50 PM 61.0°F16.1°C 33.9°F1.1°C 36% 9.0 mph E14.5 kmh E 29.0 mph46.7 kmh 29.91 in1012.9 mb 0.00 in0.0 mm 0.00 in0.0 mm 0.00 in0.0 mm
04:55 PM 61.1°F16.2°C 35.3°F1.8°C 38% 14.0 mph SE22.5 kmh SE 29.0 mph46.7 kmh 29.91 in1012.9 mb 0.00 in0.0 mm 0.00 in0.0 mm 0.00 in0.0 mm
05:00 PM 61.1°F16.2°C 35.3°F1.8°C 38% 15.0 mph SE24.1 kmh SE 29.0 mph46.7 kmh 29.91 in1012.9 mb 0.00 in0.0 mm 0.00 in0.0 mm 0.00 in0.0 mm
05:05 PM 61.1°F16.2°C 36.0°F2.2°C 39% 13.0 mph E20.9 kmh E 25.0 mph40.2 kmh 29.91 in1012.9 mb 0.00 in0.0 mm 0.00 in0.0 mm 0.00 in0.0 mm
05:10 PM 61.0°F16.1°C 35.9°F2.2°C 39% 7.0 mph SW11.3 kmh SW 25.0 mph40.2 kmh 29.90 in1012.5 mb 0.00 in0.0 mm 0.00 in0.0 mm 0.00 in0.0 mm
05:15 PM 60.7°F15.9°C 35.6°F2.0°C 39% 11.0 mph SE17.7 kmh SE 25.0 mph40.2 kmh 29.90 in1012.5 mb 0.00 in0.0 mm 0.00 in0.0 mm 0.00 in0.0 mm
05:20 PM 60.6°F15.9°C 36.2°F2.3°C 40% 17.0 mph SE27.4 kmh SE 25.0 mph40.2 kmh 29.89 in1012.2 mb 0.00 in0.0 mm 0.00 in0.0 mm 0.00 in0.0 mm
05:25 PM 60.5°F15.8°C 35.4°F1.9°C 39% 11.0 mph SE17.7 kmh SE 27.0 mph43.5 kmh 29.89 in1012.2 mb 0.00 in0.0 mm 0.00 in0.0 mm 0.00 in0.0 mm
05:30 PM 60.4°F15.8°C 35.4°F1.9°C 39% 12.0 mph SSE19.3 kmh SSE 27.0 mph43.5 kmh 29.89 in1012.2 mb 0.00 in0.0 mm 0.00 in0.0 mm 0.00 in0.0 mm
05:35 PM 60.4°F15.8°C 36.0°F2.2°C 40% 19.0 mph E30.6 kmh E 23.0 mph37.0 kmh 29.89 in1012.2 mb 0.00 in0.0 mm 0.00 in0.0 mm 0.00 in0.0 mm
05:40 PM 60.2°F15.7°C 35.8°F2.1°C 40% 2.0 mph SE3.2 kmh SE 23.0 mph37.0 kmh 29.89 in1012.2 mb 0.00 in0.0 mm 0.00 in0.0 mm 0.00 in0.0 mm
05:45 PM 60.2°F15.7°C 35.2°F1.8°C 39% 14.0 mph ESE22.5 kmh ESE 23.0 mph37.0 kmh 29.89 in1012.2 mb 0.00 in0.0 mm 0.00 in0.0 mm 0.00 in0.0 mm
05:50 PM 60.0°F15.6°C 35.0°F1.7°C 39% 14.0 mph E22.5 kmh E 26.0 mph41.8 kmh 29.89 in1012.2 mb 0.00 in0.0 mm 0.00 in0.0 mm 0.00 in0.0 mm
05:55 PM 59.9°F15.5°C 35.5°F1.9°C 40% 9.0 mph ESE14.5 kmh ESE 26.0 mph41.8 kmh 29.89 in1012.2 mb 0.00 in0.0 mm 0.00 in0.0 mm 0.00 in0.0 mm
06:05 PM 59.5°F15.3°C 35.2°F1.8°C 40% 14.0 mph E22.5 kmh E 19.0 mph30.6 kmh 29.89 in1012.2 mb 0.00 in0.0 mm 0.00 in0.0 mm 0.00 in0.0 mm
06:10 PM 59.4°F15.2°C 35.7°F2.1°C 41% 14.0 mph ESE22.5 kmh ESE 21.0 mph33.8 kmh 29.89 in1012.2 mb 0.00 in0.0 mm 0.00 in0.0 mm 0.00 in0.0 mm
06:15 PM 59.3°F15.2°C 36.2°F2.3°C 42% 5.0 mph E8.0 kmh E 23.0 mph37.0 kmh 29.88 in1011.9 mb 0.00 in0.0 mm 0.00 in0.0 mm 0.00 in0.0 mm
06:20 PM 59.1°F15.1°C 35.4°F1.9°C 41% 17.0 mph E27.4 kmh E 22.0 mph35.4 kmh 29.88 in1011.9 mb 0.00 in0.0 mm 0.00 in0.0 mm 0.00 in0.0 mm
06:25 PM 59.2°F15.1°C 35.5°F1.9°C 41% 14.0 mph E22.5 kmh E 25.0 mph40.2 kmh 29.88 in1011.9 mb 0.00 in0.0 mm 0.00 in0.0 mm 0.00 in0.0 mm
06:30 PM 59.2°F15.1°C 34.3°F1.3°C 39% 12.0 mph ESE19.3 kmh ESE 25.0 mph40.2 kmh 29.88 in1011.9 mb 0.00 in0.0 mm 0.00 in0.0 mm 0.00 in0.0 mm
06:35 PM 59.1°F15.1°C 34.8°F1.6°C 40% 8.0 mph SE12.9 kmh SE 24.0 mph38.6 kmh 29.88 in1011.9 mb 0.00 in0.0 mm 0.00 in0.0 mm 0.00 in0.0 mm
06:40 PM 59.1°F15.1°C 34.2°F1.2°C 39% 16.0 mph ESE25.7 kmh ESE 24.0 mph38.6 kmh 29.87 in1011.5 mb 0.00 in0.0 mm 0.00 in0.0 mm 0.00 in0.0 mm
06:45 PM 59.2°F15.1°C 34.3°F1.3°C 39% 10.0 mph SE16.1 kmh SE 29.0 mph46.7 kmh 29.88 in1011.9 mb 0.00 in0.0 mm 0.00 in0.0 mm 0.00 in0.0 mm
06:50 PM 59.2°F15.1°C 34.3°F1.3°C 39% 18.0 mph E29.0 kmh E 24.0 mph38.6 kmh 29.88 in1011.9 mb 0.00 in0.0 mm 0.00 in0.0 mm 0.00 in0.0 mm
06:55 PM 59.1°F15.1°C 34.2°F1.2°C 39% 8.0 mph ESE12.9 kmh ESE 24.0 mph38.6 kmh 29.88 in1011.9 mb 0.00 in0.0 mm 0.00 in0.0 mm 0.00 in0.0 mm
07:00 PM 58.9°F14.9°C 34.6°F1.4°C 40% 22.0 mph E35.4 kmh E 24.0 mph38.6 kmh 29.88 in1011.9 mb 0.00 in0.0 mm 0.00 in0.0 mm 0.00 in0.0 mm
07:05 PM 58.8°F14.9°C 33.9°F1.1°C 39% 16.0 mph ESE25.7 kmh ESE 20.0 mph32.2 kmh 29.88 in1011.9 mb 0.00 in0.0 mm 0.00 in0.0 mm 0.00 in0.0 mm
07:10 PM 58.7°F14.8°C 34.5°F1.4°C 40% 13.0 mph SE20.9 kmh SE 23.0 mph37.0 kmh 29.88 in1011.9 mb 0.00 in0.0 mm 0.00 in0.0 mm 0.00 in0.0 mm
07:15 PM 58.6°F14.8°C 34.4°F1.3°C 40% 14.0 mph SE22.5 kmh SE 23.0 mph37.0 kmh 29.88 in1011.9 mb 0.00 in0.0 mm 0.00 in0.0 mm 0.00 in0.0 mm
07:20 PM 58.4°F14.7°C 34.2°F1.2°C 40% 5.0 mph ESE8.0 kmh ESE 22.0 mph35.4 kmh 29.88 in1011.9 mb 0.00 in0.0 mm 0.00 in0.0 mm 0.00 in0.0 mm
07:25 PM 58.3°F14.6°C 34.1°F1.2°C 40% 10.0 mph E16.1 kmh E 22.0 mph35.4 kmh 29.88 in1011.9 mb 0.00 in0.0 mm 0.00 in0.0 mm 0.00 in0.0 mm
07:30 PM 58.2°F14.6°C 34.0°F1.1°C 40% 10.0 mph SE16.1 kmh SE 22.0 mph35.4 kmh 29.88 in1011.9 mb 0.00 in0.0 mm 0.00 in0.0 mm 0.00 in0.0 mm
07:35 PM 58.1°F14.5°C 33.9°F1.1°C 40% 6.0 mph SE9.7 kmh SE 16.0 mph25.7 kmh 29.88 in1011.9 mb 0.00 in0.0 mm 0.00 in0.0 mm 0.00 in0.0 mm
07:40 PM 57.9°F14.4°C 34.4°F1.3°C 41% 8.0 mph E12.9 kmh E 19.0 mph30.6 kmh 29.87 in1011.5 mb 0.00 in0.0 mm 0.00 in0.0 mm 0.00 in0.0 mm
07:45 PM 57.6°F14.2°C 33.5°F0.8°C 40% 10.0 mph SE16.1 kmh SE 19.0 mph30.6 kmh 29.88 in1011.9 mb 0.00 in0.0 mm 0.00 in0.0 mm 0.00 in0.0 mm
07:50 PM 57.5°F14.2°C 33.4°F0.8°C 40% 7.0 mph ESE11.3 kmh ESE 17.0 mph27.4 kmh 29.88 in1011.9 mb 0.00 in0.0 mm 0.00 in0.0 mm 0.00 in0.0 mm
07:55 PM 57.4°F14.1°C 33.3°F0.7°C 40% 10.0 mph E16.1 kmh E 17.0 mph27.4 kmh 29.88 in1011.9 mb 0.00 in0.0 mm 0.00 in0.0 mm 0.00 in0.0 mm
08:00 PM 57.3°F14.1°C 33.8°F1.0°C 41% 13.0 mph ESE20.9 kmh ESE 18.0 mph29.0 kmh 29.87 in1011.5 mb 0.00 in0.0 mm 0.00 in0.0 mm 0.00 in0.0 mm
08:05 PM 57.1°F13.9°C 33.6°F0.9°C 41% 15.0 mph E24.1 kmh E 18.0 mph29.0 kmh 29.87 in1011.5 mb 0.00 in0.0 mm 0.00 in0.0 mm 0.00 in0.0 mm
08:10 PM 57.0°F13.9°C 33.6°F0.9°C 41% 4.0 mph E6.4 kmh E 18.0 mph29.0 kmh 29.87 in1011.5 mb 0.00 in0.0 mm 0.00 in0.0 mm 0.00 in0.0 mm
08:15 PM 56.8°F13.8°C 34.0°F1.1°C 42% 11.0 mph E17.7 kmh E 22.0 mph35.4 kmh 29.87 in1011.5 mb 0.00 in0.0 mm 0.00 in0.0 mm 0.00 in0.0 mm
08:20 PM 56.8°F13.8°C 34.0°F1.1°C 42% 11.0 mph ESE17.7 kmh ESE 22.0 mph35.4 kmh 29.87 in1011.5 mb 0.00 in0.0 mm 0.00 in0.0 mm 0.00 in0.0 mm
08:25 PM 56.7°F13.7°C 33.9°F1.1°C 42% 22.0 mph SE35.4 kmh SE 23.0 mph37.0 kmh 29.87 in1011.5 mb 0.00 in0.0 mm 0.00 in0.0 mm 0.00 in0.0 mm
08:30 PM 56.6°F13.7°C 33.8°F1.0°C 42% 13.0 mph E20.9 kmh E 23.0 mph37.0 kmh 29.87 in1011.5 mb 0.00 in0.0 mm 0.00 in0.0 mm 0.00 in0.0 mm
08:35 PM 56.6°F13.7°C 33.8°F1.0°C 42% 5.0 mph ESE8.0 kmh ESE 20.0 mph32.2 kmh 29.87 in1011.5 mb 0.00 in0.0 mm 0.00 in0.0 mm 0.00 in0.0 mm
08:40 PM 56.5°F13.6°C 33.7°F0.9°C 42% 13.0 mph ESE20.9 kmh ESE 20.0 mph32.2 kmh 29.87 in1011.5 mb 0.00 in0.0 mm 0.00 in0.0 mm 0.00 in0.0 mm
08:45 PM 56.5°F13.6°C 33.7°F0.9°C 42% 9.0 mph E14.5 kmh E 20.0 mph32.2 kmh 29.87 in1011.5 mb 0.00 in0.0 mm 0.00 in0.0 mm 0.00 in0.0 mm
08:50 PM 56.3°F13.5°C 34.1°F1.2°C 43% 10.0 mph E16.1 kmh E 16.0 mph25.7 kmh 29.86 in1011.2 mb 0.00 in0.0 mm 0.00 in0.0 mm 0.00 in0.0 mm
08:55 PM 56.2°F13.4°C 34.0°F1.1°C 43% 8.0 mph E12.9 kmh E 17.0 mph27.4 kmh 29.86 in1011.2 mb 0.00 in0.0 mm 0.00 in0.0 mm 0.00 in0.0 mm
09:00 PM 56.0°F13.3°C 33.8°F1.0°C 43% 9.0 mph E14.5 kmh E 17.0 mph27.4 kmh 29.86 in1011.2 mb 0.00 in0.0 mm 0.00 in0.0 mm 0.00 in0.0 mm
09:05 PM 55.9°F13.3°C 33.8°F1.0°C 43% 14.0 mph ESE22.5 kmh ESE 16.0 mph25.7 kmh 29.87 in1011.5 mb 0.00 in0.0 mm 0.00 in0.0 mm 0.00 in0.0 mm
09:10 PM 55.8°F13.2°C 33.7°F0.9°C 43% 7.0 mph ESE11.3 kmh ESE 16.0 mph25.7 kmh 29.86 in1011.2 mb 0.00 in0.0 mm 0.00 in0.0 mm 0.00 in0.0 mm
09:15 PM 55.9°F13.3°C 33.8°F1.0°C 43% 6.0 mph SE9.7 kmh SE 19.0 mph30.6 kmh 29.86 in1011.2 mb 0.00 in0.0 mm 0.00 in0.0 mm 0.00 in0.0 mm
09:20 PM 55.9°F13.3°C 33.8°F1.0°C 43% 5.0 mph ESE8.0 kmh ESE 14.0 mph22.5 kmh 29.86 in1011.2 mb 0.00 in0.0 mm 0.00 in0.0 mm 0.00 in0.0 mm
09:25 PM 55.8°F13.2°C 33.7°F0.9°C 43% 14.0 mph ESE22.5 kmh ESE 14.0 mph22.5 kmh 29.86 in1011.2 mb 0.00 in0.0 mm 0.00 in0.0 mm 0.00 in0.0 mm
09:30 PM 55.8°F13.2°C 33.7°F0.9°C 43% 8.0 mph SE12.9 kmh SE 19.0 mph30.6 kmh 29.86 in1011.2 mb 0.00 in0.0 mm 0.00 in0.0 mm 0.00 in0.0 mm
09:35 PM 56.1°F13.4°C 33.3°F0.7°C 42% 8.0 mph SE12.9 kmh SE 13.0 mph20.9 kmh 29.86 in1011.2 mb 0.00 in0.0 mm 0.00 in0.0 mm 0.00 in0.0 mm
09:40 PM 56.1°F13.4°C 33.9°F1.1°C 43% 4.0 mph SE6.4 kmh SE 17.0 mph27.4 kmh 29.86 in1011.2 mb 0.00 in0.0 mm 0.00 in0.0 mm 0.00 in0.0 mm
09:45 PM 56.0°F13.3°C 33.8°F1.0°C 43% 6.0 mph SE9.7 kmh SE 17.0 mph27.4 kmh 29.87 in1011.5 mb 0.00 in0.0 mm 0.00 in0.0 mm 0.00 in0.0 mm
09:50 PM 55.7°F13.2°C 33.6°F0.9°C 43% 2.0 mph ESE3.2 kmh ESE 15.0 mph24.1 kmh 29.87 in1011.5 mb 0.00 in0.0 mm 0.00 in0.0 mm 0.00 in0.0 mm
09:55 PM 55.4°F13.0°C 33.9°F1.1°C 44% 10.0 mph E16.1 kmh E 15.0 mph24.1 kmh 29.87 in1011.5 mb 0.00 in0.0 mm 0.00 in0.0 mm 0.00 in0.0 mm
10:00 PM 55.3°F12.9°C 33.8°F1.0°C 44% 2.0 mph SE3.2 kmh SE 15.0 mph24.1 kmh 29.87 in1011.5 mb 0.00 in0.0 mm 0.00 in0.0 mm 0.00 in0.0 mm
10:05 PM 55.0°F12.8°C 33.5°F0.8°C 44% 8.0 mph ESE12.9 kmh ESE 10.0 mph16.1 kmh 29.87 in1011.5 mb 0.00 in0.0 mm 0.00 in0.0 mm 0.00 in0.0 mm
10:10 PM 54.6°F12.6°C 33.7°F0.9°C 45% 2.0 mph SE3.2 kmh SE 10.0 mph16.1 kmh 29.87 in1011.5 mb 0.00 in0.0 mm 0.00 in0.0 mm 0.00 in0.0 mm
10:15 PM 54.5°F12.5°C 33.6°F0.9°C 45% 5.0 mph SE8.0 kmh SE 10.0 mph16.1 kmh 29.87 in1011.5 mb 0.00 in0.0 mm 0.00 in0.0 mm 0.00 in0.0 mm
10:20 PM 54.5°F12.5°C 34.2°F1.2°C 46% 6.0 mph SE9.7 kmh SE 9.0 mph14.5 kmh 29.87 in1011.5 mb 0.00 in0.0 mm 0.00 in0.0 mm 0.00 in0.0 mm
10:25 PM 54.3°F12.4°C 34.0°F1.1°C 46% 3.0 mph S4.8 kmh S 9.0 mph14.5 kmh 29.88 in1011.9 mb 0.00 in0.0 mm 0.00 in0.0 mm 0.00 in0.0 mm
10:30 PM 53.3°F11.8°C 34.1°F1.2°C 48% 4.0 mph SW6.4 kmh SW 9.0 mph14.5 kmh 29.88 in1011.9 mb 0.00 in0.0 mm 0.00 in0.0 mm 0.00 in0.0 mm
10:35 PM 52.1°F11.2°C 34.5°F1.4°C 51% 8.0 mph SE12.9 kmh SE 12.0 mph19.3 kmh 29.88 in1011.9 mb 0.00 in0.0 mm 0.00 in0.0 mm 0.00 in0.0 mm
10:40 PM 51.4°F10.8°C 34.9°F1.6°C 53% 8.0 mph SSE12.9 kmh SSE 12.0 mph19.3 kmh 29.88 in1011.9 mb 0.00 in0.0 mm 0.00 in0.0 mm 0.00 in0.0 mm
10:45 PM 51.3°F10.7°C 34.8°F1.6°C 53% 8.0 mph SSW12.9 kmh SSW 12.0 mph19.3 kmh 29.88 in1011.9 mb 0.00 in0.0 mm 0.00 in0.0 mm 0.00 in0.0 mm
10:50 PM 51.4°F10.8°C 34.9°F1.6°C 53% 7.0 mph S11.3 kmh S 16.0 mph25.7 kmh 29.87 in1011.5 mb 0.00 in0.0 mm 0.00 in0.0 mm 0.00 in0.0 mm
10:55 PM 51.4°F10.8°C 34.4°F1.3°C 52% 5.0 mph SSW8.0 kmh SSW 16.0 mph25.7 kmh 29.88 in1011.9 mb 0.00 in0.0 mm 0.00 in0.0 mm 0.00 in0.0 mm
11:00 PM 51.4°F10.8°C 34.9°F1.6°C 53% 5.0 mph S8.0 kmh S 16.0 mph25.7 kmh 29.88 in1011.9 mb 0.00 in0.0 mm 0.00 in0.0 mm 0.00 in0.0 mm
11:05 PM 51.5°F10.8°C 34.5°F1.4°C 52% 9.0 mph S14.5 kmh S 14.0 mph22.5 kmh 29.87 in1011.5 mb 0.00 in0.0 mm 0.00 in0.0 mm 0.00 in0.0 mm
11:10 PM 51.7°F10.9°C 34.7°F1.5°C 52% 18.0 mph S29.0 kmh S 18.0 mph29.0 kmh 29.87 in1011.5 mb 0.00 in0.0 mm 0.00 in0.0 mm 0.00 in0.0 mm
11:15 PM 52.0°F11.1°C 34.5°F1.4°C 51% 9.0 mph S14.5 kmh S 18.0 mph29.0 kmh 29.87 in1011.5 mb 0.00 in0.0 mm 0.00 in0.0 mm 0.00 in0.0 mm
11:20 PM 52.3°F11.3°C 34.7°F1.5°C 51% 3.0 mph SSE4.8 kmh SSE 21.0 mph33.8 kmh 29.87 in1011.5 mb 0.00 in0.0 mm 0.00 in0.0 mm 0.00 in0.0 mm
11:25 PM 52.4°F11.3°C 34.3°F1.3°C 50% 8.0 mph SSW12.9 kmh SSW 21.0 mph33.8 kmh 29.87 in1011.5 mb 0.00 in0.0 mm 0.00 in0.0 mm 0.00 in0.0 mm
11:30 PM 52.5°F11.4°C 34.4°F1.3°C 50% 8.0 mph S12.9 kmh S 21.0 mph33.8 kmh 29.87 in1011.5 mb 0.00 in0.0 mm 0.00 in0.0 mm 0.00 in0.0 mm
11:35 PM 52.5°F11.4°C 34.4°F1.3°C 50% 5.0 mph SSW8.0 kmh SSW 13.0 mph20.9 kmh 29.87 in1011.5 mb 0.00 in0.0 mm 0.00 in0.0 mm 0.00 in0.0 mm
11:40 PM 52.4°F11.3°C 34.3°F1.3°C 50% 6.0 mph S9.7 kmh S 13.0 mph20.9 kmh 29.87 in1011.5 mb 0.00 in0.0 mm 0.00 in0.0 mm 0.00 in0.0 mm
11:45 PM 52.5°F11.4°C 34.4°F1.3°C 50% 5.0 mph SSE8.0 kmh SSE 14.0 mph22.5 kmh 29.87 in1011.5 mb 0.00 in0.0 mm 0.00 in0.0 mm 0.00 in0.0 mm
11:50 PM 52.5°F11.4°C 34.4°F1.3°C 50% 10.0 mph SSE16.1 kmh SSE 13.0 mph20.9 kmh 29.87 in1011.5 mb 0.00 in0.0 mm 0.00 in0.0 mm 0.00 in0.0 mm
11:55 PM 52.9°F11.6°C 34.3°F1.3°C 49% 5.0 mph S8.0 kmh S 15.0 mph24.1 kmh 29.87 in1011.5 mb 0.00 in0.0 mm 0.00 in0.0 mm 0.00 in0.0 mm